Time;durP1;ratioP1;P1;durP2;ratioP2;P2;SDS_P1;SDS_P2;PMS_P1;PMS_P2;Temp;Humidity;BMP_temperature;BMP_pressure;BME280_temperature;BME280_humidity;BME280_pressure;Samples;Min_cycle;Max_cycle;Signal;HPM_P1;HPM_P2
2024/01/07 01:42:27;;;;;;;9.10;5.20;;;;;;;4.73;100.00;98447.74;134388;1298;545479;-78
2024/01/07 01:45:29;;;;;;;6.50;4.00;;;;;;;2.10;100.00;98457.20;135651;1288;22206;-78
2024/01/07 01:48:30;;;;;;;6.80;5.10;;;;;;;0.48;100.00;98461.20;135910;1289;22559;-78
2024/01/07 01:51:31;;;;;;;10.30;4.90;;;;;;;-0.55;100.00;98464.37;136282;1289;22393;-79
2024/01/07 01:54:32;;;;;;;6.70;4.70;;;;;;;-1.26;100.00;98470.30;135632;1286;150070;-79
2024/01/07 01:57:33;;;;;;;8.90;4.70;;;;;;;-1.76;100.00;98469.67;136050;1286;22593;-78
2024/01/07 02:00:34;;;;;;;7.90;4.70;;;;;;;-2.07;100.00;98468.52;136307;1286;22176;-78
2024/01/07 02:03:35;;;;;;;7.10;5.00;;;;;;;-2.32;100.00;98472.59;135724;1286;22166;-79
2024/01/07 02:06:36;;;;;;;7.30;4.50;;;;;;;-2.49;100.00;98478.60;135807;1286;22240;-79
2024/01/07 02:09:37;;;;;;;7.30;4.30;;;;;;;-2.64;100.00;98479.77;136252;1286;22553;-78
2024/01/07 02:12:38;;;;;;;6.80;4.40;;;;;;;-2.77;100.00;98482.23;135776;1276;22795;-79
2024/01/07 02:15:39;;;;;;;7.30;4.10;;;;;;;-2.84;100.00;98484.20;135704;1286;22571;-78
2024/01/07 02:18:40;;;;;;;8.40;5.10;;;;;;;-2.93;100.00;98488.12;136095;1286;22561;-78
2024/01/07 02:21:41;;;;;;;11.30;5.10;;;;;;;-3.04;100.00;98486.96;136070;1286;22165;-79
2024/01/07 02:24:42;;;;;;;6.20;4.40;;;;;;;-3.14;100.00;98489.10;135732;1286;22991;-78
2024/01/07 02:27:43;;;;;;;7.90;5.10;;;;;;;-3.22;100.00;98489.27;135792;1286;24229;-78
2024/01/07 02:30:44;;;;;;;9.20;4.60;;;;;;;-3.31;100.00;98489.61;136329;1286;22742;-79
2024/01/07 02:33:45;;;;;;;9.00;4.50;;;;;;;-3.41;100.00;98493.27;135629;1286;22636;-79
2024/01/07 02:36:46;;;;;;;6.60;4.70;;;;;;;-3.49;100.00;98496.34;135777;1277;22556;-79
2024/01/07 02:39:47;;;;;;;8.70;5.10;;;;;;;-3.54;100.00;98496.52;136522;1286;22331;-79
2024/01/07 02:42:49;;;;;;;8.10;4.50;;;;;;;-3.58;100.00;98497.80;135712;1286;22193;-79
2024/01/07 02:45:50;;;;;;;8.20;4.70;;;;;;;-3.61;100.00;98495.25;135642;1286;22207;-79
2024/01/07 02:48:51;;;;;;;7.70;4.40;;;;;;;-3.64;100.00;98497.96;136320;1286;22576;-78
2024/01/07 02:51:52;;;;;;;7.20;4.70;;;;;;;-3.68;100.00;98499.27;135908;1286;22880;-79
2024/01/07 02:54:53;;;;;;;6.40;4.30;;;;;;;-3.69;100.00;98501.56;136745;1274;22613;-79
2024/01/07 02:57:54;;;;;;;8.30;5.30;;;;;;;-3.68;100.00;98505.69;136957;1275;22544;-78
2024/01/07 03:00:55;;;;;;;7.00;4.50;;;;;;;-3.74;100.00;98502.80;137048;1275;22382;-78
2024/01/07 03:03:56;;;;;;;9.70;4.90;;;;;;;-3.76;100.00;98501.61;136637;1275;25039;-79
2024/01/07 03:06:57;;;;;;;6.90;4.60;;;;;;;-3.79;100.00;98501.77;136775;1275;22576;-79
2024/01/07 03:09:58;;;;;;;6.70;4.50;;;;;;;-3.81;100.00;98499.81;137272;1275;22180;-79
2024/01/07 03:12:59;;;;;;;7.90;4.90;;;;;;;-3.85;100.00;98503.95;136737;1274;22587;-80
2024/01/07 03:16:00;;;;;;;9.00;5.00;;;;;;;-3.86;100.00;98498.96;136809;1275;22252;-80
2024/01/07 03:19:02;;;;;;;10.30;5.20;;;;;;;-3.83;100.00;98505.63;137311;1275;22199;-80
2024/01/07 03:22:03;;;;;;;8.60;4.80;;;;;;;-3.85;100.00;98506.71;136815;1275;22158;-80
2024/01/07 03:25:04;;;;;;;5.20;4.10;;;;;;;-3.86;100.00;98510.38;136825;1275;22282;-78
2024/01/07 03:28:06;;;;;;;6.00;4.40;;;;;;;-3.88;100.00;98511.27;137042;1274;22536;-79
2024/01/07 03:31:07;;;;;;;8.20;5.00;;;;;;;-3.85;100.00;98508.90;136944;1275;22719;-79
2024/01/07 03:34:08;;;;;;;8.00;4.60;;;;;;;-3.84;100.00;98504.20;136783;1275;22296;-78
2024/01/07 03:37:09;;;;;;;6.70;4.70;;;;;;;-3.84;100.00;98503.86;136881;1275;22607;-79
2024/01/07 03:40:10;;;;;;;6.60;5.20;;;;;;;-3.85;100.00;98503.15;137312;1275;22776;-79
2024/01/07 03:43:11;;;;;;;7.80;4.50;;;;;;;-3.85;100.00;98504.83;136695;1275;22420;-80
2024/01/07 03:46:12;;;;;;;7.40;4.90;;;;;;;-3.86;100.00;98509.91;136829;1274;22277;-80
2024/01/07 03:49:13;;;;;;;6.40;4.50;;;;;;;-3.81;100.00;98505.56;137362;1274;22698;-80
2024/01/07 03:52:14;;;;;;;8.50;5.50;;;;;;;-3.79;100.00;98513.53;136804;1275;22537;-79
2024/01/07 03:55:15;;;;;;;8.60;4.80;;;;;;;-3.77;100.00;98514.84;136797;1275;22532;-79
2024/01/07 03:58:16;;;;;;;7.30;3.90;;;;;;;-3.80;100.00;98514.64;137158;1275;22596;-80
2024/01/07 04:01:17;;;;;;;6.50;4.50;;;;;;;-3.80;100.00;98519.58;136910;1275;22374;-80
2024/01/07 04:04:18;;;;;;;6.60;4.70;;;;;;;-3.81;100.00;98519.86;136713;1274;22180;-80
2024/01/07 04:07:19;;;;;;;8.10;4.50;;;;;;;-3.82;100.00;98522.32;137275;1274;22758;-80
2024/01/07 04:10:20;;;;;;;7.90;4.50;;;;;;;-3.83;100.00;98523.65;137275;1274;22207;-80
2024/01/07 04:13:22;;;;;;;6.70;4.60;;;;;;;-3.86;100.00;98524.66;136810;1275;22399;-79
2024/01/07 04:16:23;;;;;;;7.30;4.80;;;;;;;-3.87;100.00;98526.46;136764;1274;24234;-80
2024/01/07 04:19:24;;;;;;;9.30;4.60;;;;;;;-3.91;100.00;98526.92;137350;1274;22240;-78
2024/01/07 04:22:25;;;;;;;7.20;4.60;;;;;;;-3.93;100.00;98527.12;136740;1274;22192;-80
2024/01/07 04:25:26;;;;;;;7.70;4.40;;;;;;;-3.89;100.00;98530.90;136700;1274;23929;-80
2024/01/07 04:28:27;;;;;;;9.60;5.10;;;;;;;-3.90;100.00;98531.59;137249;1274;22850;-77
2024/01/07 04:31:28;;;;;;;8.00;4.40;;;;;;;-3.96;100.00;98535.10;136795;1274;22614;-77
2024/01/07 04:34:29;;;;;;;6.30;4.40;;;;;;;-4.00;100.00;98535.88;136796;1274;22685;-78
2024/01/07 04:37:30;;;;;;;7.70;4.60;;;;;;;-3.98;100.00;98537.86;137037;1275;22603;-80
2024/01/07 04:40:31;;;;;;;7.30;5.40;;;;;;;-3.96;100.00;98542.71;136896;1275;22266;-77
2024/01/07 04:43:32;;;;;;;9.00;5.70;;;;;;;-3.96;100.00;98544.07;136744;1275;22524;-80
2024/01/07 04:46:33;;;;;;;8.40;4.70;;;;;;;-3.96;100.00;98546.27;136933;1275;22541;-81
2024/01/07 04:49:34;;;;;;;10.60;4.40;;;;;;;-3.98;100.00;98551.09;137235;1275;22207;-78
2024/01/07 04:52:35;;;;;;;7.90;4.90;;;;;;;-3.97;100.00;98554.05;136823;1274;22410;-78
2024/01/07 04:55:36;;;;;;;6.00;4.50;;;;;;;-3.93;100.00;98554.50;136794;1274;22582;-79
2024/01/07 04:58:37;;;;;;;7.70;4.40;;;;;;;-3.93;100.00;98554.45;137322;1275;22187;-79
2024/01/07 05:01:39;;;;;;;7.00;4.90;;;;;;;-3.95;100.00;98552.50;136739;1267;22396;-79
2024/01/07 05:04:40;;;;;;;6.20;4.50;;;;;;;-3.94;100.00;98560.67;136642;1273;23458;-79
2024/01/07 05:07:41;;;;;;;11.20;5.20;;;;;;;-3.97;100.00;98567.66;137292;1275;22549;-79
2024/01/07 05:10:43;;;;;;;6.70;4.50;;;;;;;-4.02;100.00;98569.39;136830;1274;22275;-79
2024/01/07 05:13:44;;;;;;;6.90;4.60;;;;;;;-4.05;100.00;98566.12;136648;1274;22411;-79
2024/01/07 05:16:45;;;;;;;9.80;5.20;;;;;;;-4.06;100.00;98568.27;137390;1275;22146;-79
2024/01/07 05:19:46;;;;;;;6.40;5.20;;;;;;;-4.03;100.00;98570.31;137366;1275;22221;-79
2024/01/07 05:22:47;;;;;;;7.40;4.80;;;;;;;-4.05;100.00;98571.86;136932;1275;22286;-79
2024/01/07 05:25:48;;;;;;;6.00;4.70;;;;;;;-4.08;100.00;98576.48;137367;1275;22256;-78
2024/01/07 05:28:49;;;;;;;7.00;4.70;;;;;;;-4.10;100.00;98578.91;137356;1275;22335;-78
2024/01/07 05:31:50;;;;;;;6.20;4.10;;;;;;;-4.11;100.00;98575.88;137319;1275;22544;-79
2024/01/07 05:34:51;;;;;;;5.60;4.20;;;;;;;-4.15;100.00;98575.63;136700;1275;22538;-79
2024/01/07 05:37:52;;;;;;;7.80;4.70;;;;;;;-4.15;100.00;98583.30;137315;1274;22297;-79
2024/01/07 05:40:53;;;;;;;6.50;4.60;;;;;;;-4.21;100.00;98583.10;136773;1275;22242;-80
2024/01/07 05:43:54;;;;;;;7.00;4.80;;;;;;;-4.30;100.00;98584.73;136742;1275;22290;-80
2024/01/07 05:46:55;;;;;;;7.60;5.10;;;;;;;-4.35;100.00;98588.78;137243;1274;22607;-78
2024/01/07 05:49:56;;;;;;;7.60;5.00;;;;;;;-4.38;100.00;98590.10;136937;1275;22291;-77
2024/01/07 05:52:57;;;;;;;4.90;4.00;;;;;;;-4.41;100.00;98590.89;136769;1274;22268;-78
2024/01/07 05:55:58;;;;;;;6.90;4.90;;;;;;;-4.39;100.00;98598.71;136941;1275;24291;-80
2024/01/07 05:58:59;;;;;;;6.00;5.00;;;;;;;-3.34;100.00;98597.80;137199;1275;22232;-78
2024/01/07 06:02:00;;;;;;;5.10;4.10;;;;;;;-3.17;100.00;98600.58;136747;1275;22735;-79
2024/01/07 06:05:02;;;;;;;6.40;4.40;;;;;;;-3.45;100.00;98603.23;136678;1275;22527;-79
2024/01/07 06:08:03;;;;;;;13.80;5.90;;;;;;;-3.67;100.00;98604.58;137311;1274;22310;-78
2024/01/07 06:11:04;;;;;;;7.20;4.70;;;;;;;-3.84;100.00;98609.10;136776;1275;22698;-80
2024/01/07 06:14:05;;;;;;;7.80;5.30;;;;;;;-3.98;100.00;98610.56;136769;1275;22232;-80
2024/01/07 06:17:06;;;;;;;7.90;5.20;;;;;;;-4.08;100.00;98610.61;137280;1275;22599;-81
2024/01/07 06:20:08;;;;;;;7.20;4.80;;;;;;;-4.08;100.00;98614.65;136787;1274;25505;-80
2024/01/07 06:23:09;;;;;;;6.30;4.60;;;;;;;-4.10;100.00;98616.44;136921;1274;22247;-80
2024/01/07 06:26:10;;;;;;;6.60;4.80;;;;;;;-4.13;100.00;98618.30;137218;1275;22563;-80
2024/01/07 06:29:11;;;;;;;10.30;5.20;;;;;;;-4.17;100.00;98616.14;137069;1274;22276;-81
2024/01/07 06:32:12;;;;;;;9.80;5.80;;;;;;;-4.23;100.00;98618.81;137387;1275;22349;-81
2024/01/07 06:35:13;;;;;;;7.60;5.30;;;;;;;-4.26;100.00;98618.44;137365;1275;22509;-81
2024/01/07 06:38:14;;;;;;;8.50;5.10;;;;;;;-4.27;100.00;98623.30;137312;1275;22210;-81
2024/01/07 06:41:15;;;;;;;7.80;6.10;;;;;;;-4.32;100.00;98627.38;137362;1275;22469;-80
2024/01/07 06:44:17;;;;;;;8.90;5.20;;;;;;;-4.35;100.00;98626.48;136751;1275;22609;-81
2024/01/07 06:47:18;;;;;;;10.50;5.60;;;;;;;-4.37;100.00;98629.05;137356;1274;22218;-81
2024/01/07 06:50:20;;;;;;;9.40;6.00;;;;;;;-4.40;100.00;98628.36;137399;1274;22630;-81
2024/01/07 06:53:21;;;;;;;7.10;5.00;;;;;;;-4.47;100.00;98634.16;136775;1274;22204;-81
2024/01/07 06:56:24;;;;;;;7.10;5.60;;;;;;;-4.49;100.00;98629.11;137300;1275;23129;-79
2024/01/07 06:59:25;;;;;;;9.50;4.90;;;;;;;-4.46;100.00;98635.90;136793;1274;22267;-80
2024/01/07 07:02:26;;;;;;;8.10;5.20;;;;;;;-4.44;100.00;98640.48;136704;1275;22297;-82
2024/01/07 07:05:27;;;;;;;6.80;4.70;;;;;;;-4.43;100.00;98641.89;136995;1274;25430;-80
2024/01/07 07:08:28;;;;;;;12.30;5.70;;;;;;;-4.43;100.00;98644.98;137145;1275;22262;-82
2024/01/07 07:11:29;;;;;;;9.10;5.50;;;;;;;-4.42;100.00;98646.89;136864;1274;22695;-83
2024/01/07 07:14:30;;;;;;;8.90;4.90;;;;;;;-4.41;100.00;98646.46;136896;1274;23210;-83
2024/01/07 07:17:31;;;;;;;6.80;4.80;;;;;;;-4.36;100.00;98650.88;137273;1274;22551;-83
2024/01/07 07:20:32;;;;;;;7.90;5.20;;;;;;;-4.30;100.00;98651.66;136892;1274;22204;-83
2024/01/07 07:23:33;;;;;;;10.50;6.70;;;;;;;-4.28;100.00;98656.88;136860;1274;22743;-83
2024/01/07 07:26:35;;;;;;;8.70;6.80;;;;;;;-4.26;100.00;98662.09;137336;1275;22246;-83
2024/01/07 07:29:36;;;;;;;8.70;5.30;;;;;;;-4.26;100.00;98662.46;136858;1275;22260;-83
2024/01/07 07:32:38;;;;;;;11.60;5.70;;;;;;;-4.21;100.00;98661.73;137007;1275;22247;-83
2024/01/07 07:35:40;;;;;;;9.10;6.10;;;;;;;-4.19;100.00;98662.42;137280;1275;22729;-83
2024/01/07 07:38:41;;;;;;;10.20;5.80;;;;;;;-4.11;100.00;98661.71;137038;1275;22399;-82
2024/01/07 07:41:42;;;;;;;14.80;7.60;;;;;;;-4.08;100.00;98663.45;136896;1275;22613;-83
2024/01/07 07:44:43;;;;;;;8.80;5.30;;;;;;;-4.02;100.00;98663.55;136919;1275;22550;-82
2024/01/07 07:47:45;;;;;;;13.40;7.00;;;;;;;-4.01;100.00;98665.63;137209;1275;22212;-83
2024/01/07 07:50:46;;;;;;;8.80;5.30;;;;;;;-3.96;100.00;98664.08;136973;1275;22163;-83
2024/01/07 07:53:47;;;;;;;10.70;5.50;;;;;;;-3.89;100.00;98664.73;136828;1275;22522;-82
2024/01/07 07:56:48;;;;;;;14.80;6.50;;;;;;;-3.83;100.00;98666.80;137391;1275;24854;-83
2024/01/07 07:59:49;;;;;;;17.60;7.30;;;;;;;-3.76;100.00;98672.87;136842;1274;22714;-83
2024/01/07 08:02:50;;;;;;;15.90;7.40;;;;;;;-3.66;100.00;98670.65;136841;1275;22729;-83
2024/01/07 08:05:51;;;;;;;13.70;6.80;;;;;;;-3.54;100.00;98671.92;137329;1275;23098;-81
2024/01/07 08:08:52;;;;;;;12.20;6.90;;;;;;;-3.44;100.00;98671.88;136898;1275;22308;-82
2024/01/07 08:11:53;;;;;;;11.10;5.80;;;;;;;-3.38;100.00;98681.42;136877;1270;22301;-83
2024/01/07 08:14:54;;;;;;;19.50;7.60;;;;;;;-3.42;100.00;98679.15;137036;1275;22650;-82
2024/01/07 08:17:55;;;;;;;16.90;7.30;;;;;;;-3.36;100.00;98680.91;137150;1267;22183;-83
2024/01/07 08:20:57;;;;;;;13.40;6.90;;;;;;;-3.38;100.00;98680.77;136809;1275;22220;-81
2024/01/07 08:23:58;;;;;;;15.20;7.70;;;;;;;-3.43;100.00;98680.95;136844;1275;22560;-83
2024/01/07 08:26:59;;;;;;;12.00;6.30;;;;;;;-3.46;100.00;98682.66;137368;1274;22282;-82
2024/01/07 08:30:00;;;;;;;9.50;6.00;;;;;;;-3.45;100.00;98681.33;136690;1275;22596;-83
2024/01/07 08:33:01;;;;;;;9.40;6.70;;;;;;;-3.34;100.00;98682.71;136948;1275;22539;-82
2024/01/07 08:36:04;;;;;;;9.70;5.60;;;;;;;-3.20;100.00;98680.73;137471;1275;22204;-82
2024/01/07 08:39:05;;;;;;;11.60;6.50;;;;;;;-3.18;100.00;98687.14;136740;1268;22422;-82
2024/01/07 08:42:06;;;;;;;8.10;5.50;;;;;;;-3.21;100.00;98696.13;136819;1274;22246;-82
2024/01/07 08:45:07;;;;;;;9.60;6.00;;;;;;;-3.23;100.00;98696.19;137184;1275;22540;-82
2024/01/07 08:48:09;;;;;;;9.50;5.60;;;;;;;-3.18;100.00;98693.44;136948;1275;22564;-82
2024/01/07 08:51:10;;;;;;;7.80;5.90;;;;;;;-3.07;100.00;98697.89;136842;1275;22261;-82
2024/01/07 08:54:11;;;;;;;8.90;6.00;;;;;;;-3.06;100.00;98698.98;137028;1274;22535;-82
2024/01/07 08:57:12;;;;;;;8.90;6.30;;;;;;;-2.97;100.00;98697.79;137139;1274;22176;-81
2024/01/07 09:00:13;;;;;;;8.40;6.60;;;;;;;-2.86;100.00;98698.83;136760;1275;22595;-82
2024/01/07 09:03:14;;;;;;;9.30;5.90;;;;;;;-2.76;100.00;98697.59;136935;1275;22527;-83
2024/01/07 09:06:15;;;;;;;10.80;6.50;;;;;;;-2.78;100.00;98702.05;137405;1269;22168;-82
2024/01/07 09:09:16;;;;;;;10.50;7.20;;;;;;;-2.71;100.00;98703.67;136829;1275;22550;-82
2024/01/07 09:12:20;;;;;;;8.70;6.50;;;;;;;-2.65;100.00;98706.25;136848;1274;22284;-81
2024/01/07 09:15:21;;;;;;;10.50;6.50;;;;;;;-2.68;100.00;98706.91;137290;1275;22544;-82
2024/01/07 09:18:22;;;;;;;10.60;7.60;;;;;;;-2.72;100.00;98708.35;136928;1275;22543;-83
2024/01/07 09:21:23;;;;;;;32.40;18.30;;;;;;;-2.68;100.00;98708.15;136879;1274;22756;-82
2024/01/07 09:24:24;;;;;;;12.30;8.30;;;;;;;-2.62;100.00;98709.36;137242;1275;22515;-81
2024/01/07 09:27:25;;;;;;;11.10;7.50;;;;;;;-2.52;100.00;98707.26;137095;1274;22557;-81
2024/01/07 09:30:26;;;;;;;12.00;7.70;;;;;;;-2.43;100.00;98712.08;136969;1275;22281;-83
2024/01/07 09:33:27;;;;;;;17.40;10.20;;;;;;;-2.45;100.00;98713.27;136978;1275;22560;-83
2024/01/07 09:36:28;;;;;;;21.60;11.90;;;;;;;-2.35;100.00;98715.61;137340;1275;22207;-84
2024/01/07 09:39:29;;;;;;;12.50;8.10;;;;;;;-2.26;100.00;98711.40;136919;1275;22234;-82
2024/01/07 09:42:30;;;;;;;28.90;15.50;;;;;;;-2.34;100.00;98713.63;136776;1275;22699;-81
2024/01/07 09:45:31;;;;;;;15.60;9.30;;;;;;;-2.45;100.00;98713.12;137301;1275;22571;-82
2024/01/07 09:48:32;;;;;;;19.10;11.70;;;;;;;-2.49;100.00;98707.09;136882;1275;22223;-83
2024/01/07 09:51:34;;;;;;;12.90;8.30;;;;;;;-2.47;100.00;98711.14;136970;1275;23082;-83
2024/01/07 09:54:35;;;;;;;16.50;8.80;;;;;;;-2.48;100.00;98703.20;137323;1275;22218;-83
2024/01/07 09:57:36;;;;;;;12.90;8.50;;;;;;;-2.51;100.00;98707.10;136848;1274;22197;-83
2024/01/07 10:00:37;;;;;;;18.10;11.30;;;;;;;-2.56;100.00;98705.80;136870;1275;22220;-83
2024/01/07 10:03:38;;;;;;;12.10;8.10;;;;;;;-2.62;100.00;98704.95;137049;1275;22555;-83
2024/01/07 10:06:39;;;;;;;14.70;9.00;;;;;;;-2.63;100.00;98697.86;137129;1271;22239;-82
2024/01/07 10:09:42;;;;;;;11.40;8.70;;;;;;;-2.55;100.00;98697.89;136809;1275;22278;-83
2024/01/07 10:12:43;;;;;;;12.00;8.70;;;;;;;-2.49;100.00;98701.48;136876;1275;22537;-83
2024/01/07 10:15:44;;;;;;;16.80;10.70;;;;;;;-2.50;100.00;98694.38;137311;1275;22206;-84
2024/01/07 10:18:47;;;;;;;14.20;9.10;;;;;;;-2.55;100.00;98696.98;136924;1274;22499;-84
2024/01/07 10:21:48;;;;;;;20.50;13.70;;;;;;;-2.57;100.00;98693.64;136832;1267;22237;-83
2024/01/07 10:24:49;;;;;;;13.10;8.40;;;;;;;-2.53;100.00;98693.71;137336;1275;22413;-83
2024/01/07 10:27:51;;;;;;;13.50;8.80;;;;;;;-2.51;100.00;98693.67;136812;1275;22189;-83
2024/01/07 10:30:53;;;;;;;14.50;9.80;;;;;;;-2.48;100.00;98691.64;136888;1275;22281;-83
2024/01/07 10:33:54;;;;;;;13.50;9.40;;;;;;;-2.40;100.00;98691.79;137224;1275;22632;-83
2024/01/07 10:36:56;;;;;;;9.80;7.80;;;;;;;-2.31;100.00;98691.78;136889;1275;22420;-83
2024/01/07 10:39:57;;;;;;;13.80;9.10;;;;;;;-2.36;100.00;98695.96;136743;1274;22559;-82
2024/01/07 10:42:58;;;;;;;15.10;9.50;;;;;;;-2.41;100.00;98695.11;137039;1275;22459;-84
2024/01/07 10:46:00;;;;;;;15.30;9.60;;;;;;;-2.43;100.00;98693.79;137182;1275;22396;-83
2024/01/07 10:49:01;;;;;;;13.40;9.80;;;;;;;-2.44;100.00;98697.98;136897;1275;22373;-84
2024/01/07 10:52:03;;;;;;;30.20;18.50;;;;;;;-2.39;100.00;98693.24;137078;1274;22532;-84
2024/01/07 10:55:04;;;;;;;18.20;11.30;;;;;;;-2.21;100.00;98692.59;137206;1270;22483;-84
2024/01/07 10:58:05;;;;;;;17.60;9.30;;;;;;;-2.07;100.00;98690.18;137050;1274;22129;-84
2024/01/07 11:01:07;;;;;;;22.60;12.10;;;;;;;-2.01;100.00;98690.67;137001;1274;22531;-82
2024/01/07 11:04:08;;;;;;;25.30;11.70;;;;;;;-1.91;100.00;98690.90;137339;1275;22253;-83
2024/01/07 11:07:09;;;;;;;19.00;10.20;;;;;;;-1.83;100.00;98690.85;136972;1266;22399;-83
2024/01/07 11:10:10;;;;;;;23.70;12.50;;;;;;;-2.00;100.00;98696.88;137118;1275;22274;-82
2024/01/07 11:13:11;;;;;;;22.20;11.30;;;;;;;-2.12;100.00;98691.90;137366;1274;22233;-82
2024/01/07 11:16:12;;;;;;;22.20;11.90;;;;;;;-2.10;100.00;98694.94;137386;1271;22258;-83
2024/01/07 11:19:13;;;;;;;21.90;12.40;;;;;;;-2.08;100.00;98691.47;137395;1272;22234;-83
2024/01/07 11:22:14;;;;;;;21.70;11.60;;;;;;;-2.13;100.00;98690.84;137373;1275;22677;-84
2024/01/07 11:25:15;;;;;;;15.10;10.10;;;;;;;-2.12;100.00;98693.44;137396;1274;22742;-83
2024/01/07 11:28:16;;;;;;;15.00;10.90;;;;;;;-2.28;100.00;98704.44;137394;1274;22727;-82
2024/01/07 11:31:17;;;;;;;21.80;12.30;;;;;;;-2.38;100.00;98706.21;137347;1274;22688;-82
2024/01/07 11:34:18;;;;;;;20.00;11.30;;;;;;;-2.31;100.00;98700.66;137351;1275;22594;-82
2024/01/07 11:37:19;;;;;;;19.80;11.40;;;;;;;-2.31;100.00;98702.92;137388;1274;22283;-82
2024/01/07 11:40:21;;;;;;;19.60;12.60;;;;;;;-2.30;100.00;98700.74;137383;1274;22597;-83
2024/01/07 11:43:22;;;;;;;22.70;12.80;;;;;;;-2.28;100.00;98705.48;137388;1275;22697;-83
2024/01/07 11:46:23;;;;;;;19.20;11.30;;;;;;;-2.31;100.00;98712.44;137225;1275;23330;-83
2024/01/07 11:49:24;;;;;;;18.50;11.60;;;;;;;-2.50;100.00;98711.98;137212;1274;22222;-83
2024/01/07 11:52:25;;;;;;;21.70;12.10;;;;;;;-2.72;100.00;98722.86;137363;1275;22213;-84
2024/01/07 11:55:26;;;;;;;38.70;22.80;;;;;;;-2.85;100.00;98720.52;136988;1275;22204;-83
2024/01/07 11:58:28;;;;;;;18.90;12.70;;;;;;;-2.74;100.00;98715.39;137071;1275;22207;-84
2024/01/07 12:01:29;;;;;;;18.10;12.10;;;;;;;-2.71;100.00;98727.16;137369;1275;22200;-82
2024/01/07 12:04:30;;;;;;;26.00;14.40;;;;;;;-2.79;100.00;98722.07;137240;1274;22175;-84
2024/01/07 12:07:31;;;;;;;26.10;14.10;;;;;;;-2.79;100.00;98721.55;137127;1275;22198;-83
2024/01/07 12:10:32;;;;;;;19.30;12.20;;;;;;;-2.80;100.00;98722.70;137306;1275;22647;-84
2024/01/07 12:13:33;;;;;;;31.10;19.20;;;;;;;-2.92;100.00;98721.79;137157;1275;22227;-83
2024/01/07 12:16:34;;;;;;;20.00;12.90;;;;;;;-2.89;100.00;98722.65;137002;1275;22203;-84
2024/01/07 12:19:35;;;;;;;16.30;11.60;;;;;;;-2.87;100.00;98725.64;137034;1275;22548;-82
2024/01/07 12:22:37;;;;;;;18.50;12.30;;;;;;;-2.95;100.00;98727.06;137396;1275;22180;-83
2024/01/07 12:25:38;;;;;;;17.80;11.80;;;;;;;-2.94;100.00;98722.67;137091;1275;22653;-84
2024/01/07 12:28:39;;;;;;;24.30;13.50;;;;;;;-2.94;100.00;98725.21;137118;1271;22250;-83
2024/01/07 12:31:41;;;;;;;21.70;13.10;;;;;;;-3.03;100.00;98731.83;137457;1275;22194;-84
2024/01/07 12:34:43;;;;;;;19.80;12.70;;;;;;;-3.17;100.00;98735.71;137011;1275;22239;-84
2024/01/07 12:37:44;;;;;;;21.20;13.20;;;;;;;-3.18;100.00;98735.28;137089;1275;22187;-84
2024/01/07 12:40:45;;;;;;;36.90;21.70;;;;;;;-3.21;100.00;98729.70;137351;1275;22539;-83
2024/01/07 12:43:46;;;;;;;27.90;15.90;;;;;;;-3.03;100.00;98730.98;137175;1275;22206;-84
2024/01/07 12:46:48;;;;;;;24.90;15.00;;;;;;;-2.89;100.00;98732.38;137127;1275;22222;-85
2024/01/07 12:49:49;;;;;;;29.90;17.90;;;;;;;-2.82;100.00;98740.62;137171;1275;22658;-84
2024/01/07 12:52:52;;;;;;;21.80;12.70;;;;;;;-2.85;100.00;98742.98;137098;1275;22166;-84
2024/01/07 12:55:53;;;;;;;23.10;14.40;;;;;;;-2.96;100.00;98742.46;136965;1275;22418;-84
2024/01/07 12:58:54;;;;;;;21.40;12.50;;;;;;;-3.00;100.00;98744.28;137118;1275;22560;-84
2024/01/07 13:01:55;;;;;;;20.80;12.90;;;;;;;-3.09;100.00;98750.84;137414;1274;22614;-85
2024/01/07 13:04:57;;;;;;;17.80;12.20;;;;;;;-3.25;100.00;98754.11;137091;1267;22586;-84
2024/01/07 13:07:58;;;;;;;22.20;12.30;;;;;;;-3.52;100.00;98762.04;137085;1272;22210;-84
2024/01/07 13:11:00;;;;;;;23.30;15.80;;;;;;;-3.67;100.00;98762.20;137298;1271;22196;-84
2024/01/07 13:14:01;;;;;;;36.70;22.90;;;;;;;-3.66;100.00;98760.40;136913;1275;22260;-84
2024/01/07 13:17:02;;;;;;;21.80;13.90;;;;;;;-3.52;100.00;98762.15;137166;1274;22180;-84
2024/01/07 13:20:06;;;;;;;22.80;14.00;;;;;;;-3.56;100.00;98766.02;137254;1275;22707;-84
2024/01/07 13:23:07;;;;;;;33.20;20.60;;;;;;;-3.67;100.00;98773.95;136767;1275;22525;-84
2024/01/07 13:26:10;;;;;;;22.20;13.50;;;;;;;-3.74;100.00;98777.03;137107;1275;22558;-84
2024/01/07 13:29:11;;;;;;;20.20;13.50;;;;;;;-3.85;100.00;98778.21;137250;1275;22344;-85
2024/01/07 13:32:12;;;;;;;22.70;14.00;;;;;;;-3.82;100.00;98782.30;137246;1275;22188;-84
2024/01/07 13:35:16;;;;;;;22.00;13.80;;;;;;;-3.84;100.00;98788.63;137200;1275;22145;-84
2024/01/07 13:38:17;;;;;;;24.70;14.40;;;;;;;-4.02;100.00;98791.02;137385;1275;22551;-84
2024/01/07 13:41:18;;;;;;;29.40;15.50;;;;;;;-4.12;100.00;98798.11;137390;1275;22196;-85
2024/01/07 13:44:19;;;;;;;27.40;13.40;;;;;;;-4.17;100.00;98803.55;137338;1275;22594;-84
2024/01/07 13:47:21;;;;;;;23.50;12.60;;;;;;;-4.23;100.00;98808.11;137251;1262;22551;-84
2024/01/07 13:50:22;;;;;;;28.20;12.40;;;;;;;-4.32;100.00;98811.85;137121;1275;22252;-83
2024/01/07 13:53:23;;;;;;;22.40;12.60;;;;;;;-4.38;100.00;98811.41;137304;1275;22739;-84
2024/01/07 13:56:24;;;;;;;22.20;13.40;;;;;;;-4.33;100.00;98811.45;137043;1274;349181;-84
2024/01/07 13:59:26;;;;;;;20.60;12.80;;;;;;;-4.33;100.00;98813.31;137197;1274;22260;-85
2024/01/07 14:02:27;;;;;;;22.00;13.10;;;;;;;-4.53;100.00;98814.95;137356;1275;22197;-85
2024/01/07 14:05:28;;;;;;;28.30;15.70;;;;;;;-4.68;100.00;98817.34;137385;1275;22588;-84
2024/01/07 14:08:29;;;;;;;27.40;14.20;;;;;;;-4.72;100.00;98818.20;137267;1275;22541;-85
2024/01/07 14:11:30;;;;;;;32.60;18.00;;;;;;;-4.77;100.00;98817.54;137344;1275;22740;-85
2024/01/07 14:14:31;;;;;;;20.80;13.40;;;;;;;-4.81;100.00;98824.70;137212;1275;22766;-84
2024/01/07 14:17:32;;;;;;;29.60;16.50;;;;;;;-4.88;100.00;98825.08;137274;1275;22352;-84
2024/01/07 14:20:33;;;;;;;32.20;17.90;;;;;;;-4.88;100.00;98828.11;137222;1275;22517;-82
2024/01/07 14:23:35;;;;;;;35.10;19.90;;;;;;;-4.85;100.00;98832.09;137357;1275;22697;-83
2024/01/07 14:26:36;;;;;;;21.30;13.20;;;;;;;-4.90;100.00;98835.51;137375;1275;22261;-83
2024/01/07 14:29:38;;;;;;;30.50;17.30;;;;;;;-4.97;100.00;98842.77;137383;1275;22264;-83
2024/01/07 14:32:39;;;;;;;25.00;14.50;;;;;;;-5.00;100.00;98844.05;137370;1275;22170;-83
2024/01/07 14:35:40;;;;;;;34.90;20.30;;;;;;;-5.03;100.00;98843.33;137309;1275;22191;-83
2024/01/07 14:38:41;;;;;;;34.80;18.10;;;;;;;-5.04;100.00;98850.39;137379;1275;22624;-83
2024/01/07 14:41:43;;;;;;;29.80;17.70;;;;;;;-5.07;100.00;98853.59;137350;1275;22360;-83
2024/01/07 14:44:44;;;;;;;24.30;15.80;;;;;;;-5.09;100.00;98861.59;137483;1274;22901;-84
2024/01/07 14:47:45;;;;;;;27.80;15.40;;;;;;;-5.15;100.00;98860.83;137436;1274;22265;-84
2024/01/07 14:50:47;;;;;;;31.00;18.00;;;;;;;-5.16;100.00;98861.09;137164;1275;25233;-82
2024/01/07 14:53:48;;;;;;;27.90;15.90;;;;;;;-5.19;100.00;98863.09;137294;1274;22219;-84
2024/01/07 14:56:49;;;;;;;27.20;16.60;;;;;;;-5.22;100.00;98866.23;137371;1274;22761;-84
2024/01/07 14:59:51;;;;;;;50.50;28.90;;;;;;;-5.27;100.00;98869.17;137485;1275;22245;-84
2024/01/07 15:02:53;;;;;;;31.30;18.50;;;;;;;-5.28;100.00;98868.45;137458;1275;22460;-82
2024/01/07 15:05:54;;;;;;;76.80;39.00;;;;;;;-5.26;100.00;98871.82;137342;1275;22286;-84
2024/01/07 15:08:55;;;;;;;28.40;17.20;;;;;;;-5.23;100.00;98879.03;137391;1274;22439;-83
2024/01/07 15:11:57;;;;;;;29.90;16.20;;;;;;;-5.26;100.00;98875.06;137390;1275;22372;-84
2024/01/07 15:14:58;;;;;;;87.10;40.60;;;;;;;-5.33;100.00;98879.77;137358;1272;22225;-83
2024/01/07 15:17:59;;;;;;;27.90;15.70;;;;;;;-5.35;100.00;98884.20;137324;1275;22783;-84
2024/01/07 15:21:00;;;;;;;34.40;18.00;;;;;;;-5.39;100.00;98883.11;137334;1275;22255;-83
2024/01/07 15:24:01;;;;;;;26.30;14.60;;;;;;;-5.40;100.00;98888.61;137348;1275;22245;-84